Time;durP1;ratioP1;P1;durP2;ratioP2;P2;SDS_P1;SDS_P2;PMS_P1;PMS_P2;Temp;Humidity;BMP_temperature;BMP_pressure;BME280_temperature;BME280_humidity;BME280_pressure;Samples;Min_cycle;Max_cycle;Signal;HPM_P1;HPM_P2
2022/06/11 00:01:54;;;;;;;14.63;13.43;;;;;;;19.95;100.00;98848.91;5054438;28;20193;-58
2022/06/11 00:04:25;;;;;;;13.50;12.40;;;;;;;20.00;100.00;98846.19;5054741;28;20193;-58
2022/06/11 00:06:56;;;;;;;13.23;12.33;;;;;;;20.04;100.00;98847.25;5054828;28;20228;-58
2022/06/11 00:09:25;;;;;;;14.47;13.10;;;;;;;20.01;100.00;98843.22;5054345;28;20192;-58
2022/06/11 00:11:53;;;;;;;15.63;14.23;;;;;;;20.00;100.00;98835.41;5054476;28;20205;-59
2022/06/11 00:14:20;;;;;;;14.87;13.77;;;;;;;20.07;100.00;98846.72;5054209;28;20630;-59
2022/06/11 00:16:47;;;;;;;15.23;13.93;;;;;;;20.08;100.00;98832.16;5054118;28;20254;-59
2022/06/11 00:19:15;;;;;;;17.20;15.67;;;;;;;20.13;100.00;98834.88;5054078;28;20200;-59
2022/06/11 00:21:44;;;;;;;16.07;14.63;;;;;;;20.15;100.00;98827.34;5054365;28;20662;-59
2022/06/11 00:24:11;;;;;;;16.57;15.10;;;;;;;20.03;100.00;98824.09;5054002;28;20649;-59
2022/06/11 00:26:42;;;;;;;17.33;15.67;;;;;;;20.04;100.00;98812.22;5054781;28;20225;-58
2022/06/11 00:29:09;;;;;;;18.83;17.13;;;;;;;20.02;100.00;98825.19;5053958;28;20184;-59
2022/06/11 00:31:36;;;;;;;17.50;15.77;;;;;;;19.99;100.00;98823.00;5054643;28;20196;-58
2022/06/11 00:34:03;;;;;;;18.53;16.93;;;;;;;20.03;100.00;98813.31;5053814;28;20607;-58
2022/06/11 00:36:31;;;;;;;18.00;16.27;;;;;;;20.08;100.00;98821.38;5054005;28;20189;-58
2022/06/11 00:38:58;;;;;;;18.37;16.77;;;;;;;20.05;100.00;98822.72;5054632;28;20233;-58
2022/06/11 00:41:28;;;;;;;17.43;16.03;;;;;;;20.07;100.00;98815.19;5054515;28;20274;-59
2022/06/11 00:43:56;;;;;;;18.10;16.23;;;;;;;19.97;100.00;98809.81;5053650;28;20193;-59
2022/06/11 00:46:46;;;;;;;19.17;17.17;;;;;;;20.04;100.00;98815.72;5054361;28;20250;-59
2022/06/11 00:49:19;;;;;;;18.77;17.13;;;;;;;20.12;100.00;98812.50;5053511;28;20656;-59
2022/06/11 00:51:47;;;;;;;19.23;17.47;;;;;;;20.18;100.00;98816.00;5054670;28;20603;-59
2022/06/11 00:54:17;;;;;;;19.00;17.17;;;;;;;20.21;100.00;98820.81;5054556;28;20247;-58
2022/06/11 00:56:48;;;;;;;20.27;17.77;;;;;;;20.25;100.00;98822.72;5053778;28;20191;-58
2022/06/11 00:59:19;;;;;;;17.70;16.20;;;;;;;20.23;100.00;98819.50;5053400;28;20196;-58
2022/06/11 01:01:47;;;;;;;19.63;17.63;;;;;;;20.24;100.00;98828.38;5053356;28;20732;-59
2022/06/11 01:04:48;;;;;;;18.90;17.17;;;;;;;20.31;100.00;98828.91;5053857;28;20199;-59
2022/06/11 01:07:26;;;;;;;19.50;17.67;;;;;;;20.35;100.00;98832.66;5031049;28;20231;-58
2022/06/11 01:10:07;;;;;;;18.80;17.00;;;;;;;20.36;100.00;98820.78;5051062;28;20196;-58
2022/06/11 01:12:41;;;;;;;18.20;16.77;;;;;;;20.41;100.00;98826.16;5054100;28;20184;-58
2022/06/11 01:15:15;;;;;;;17.53;15.93;;;;;;;20.46;100.00;98826.16;5053657;28;20184;-58
2022/06/11 01:17:51;;;;;;;17.80;16.20;;;;;;;20.52;100.00;98827.75;5052320;28;20655;-58
2022/06/11 01:20:45;;;;;;;17.60;16.00;;;;;;;20.56;100.00;98823.41;5053065;28;20710;-58
2022/06/11 01:23:47;;;;;;;17.83;16.23;;;;;;;20.61;100.00;98826.09;5052755;28;20656;-58
2022/06/11 01:26:52;;;;;;;18.50;16.90;;;;;;;20.60;100.00;98821.78;5054010;28;20223;-58
2022/06/11 01:29:41;;;;;;;19.30;17.40;;;;;;;20.66;100.00;98828.75;5053911;28;20593;-58
2022/06/11 01:32:14;;;;;;;18.47;16.87;;;;;;;20.63;100.00;98821.22;5053904;28;20671;-59
2022/06/11 01:34:48;;;;;;;19.20;17.57;;;;;;;20.67;100.00;98825.00;5053003;28;20624;-58
2022/06/11 01:37:21;;;;;;;18.23;16.37;;;;;;;20.68;100.00;98826.59;5052911;28;20284;-58
2022/06/11 01:39:53;;;;;;;18.80;17.20;;;;;;;20.67;100.00;98825.00;5052991;28;20224;-58
2022/06/11 01:42:24;;;;;;;18.93;17.27;;;;;;;20.64;100.00;98820.13;5053447;28;20189;-58
2022/06/11 01:45:03;;;;;;;19.73;17.60;;;;;;;20.49;100.00;98831.81;5053731;28;20250;-58
2022/06/11 01:47:31;;;;;;;17.70;15.93;;;;;;;20.50;100.00;98835.31;5052419;28;20205;-58
2022/06/11 01:49:58;;;;;;;17.67;16.13;;;;;;;20.52;100.00;98828.56;5052415;28;20196;-59
2022/06/11 01:52:53;;;;;;;18.33;16.60;;;;;;;20.32;100.00;98828.63;5053163;28;20196;-59
2022/06/11 01:55:31;;;;;;;19.80;17.63;;;;;;;20.15;100.00;98819.25;5053468;28;20188;-58
2022/06/11 01:58:22;;;;;;;19.07;17.17;;;;;;;19.92;100.00;98823.31;5053243;28;20284;-58
2022/06/11 02:00:58;;;;;;;21.23;19.03;;;;;;;20.00;100.00;98816.53;5053092;28;20192;-58
2022/06/11 02:03:34;;;;;;;18.93;17.33;;;;;;;20.09;100.00;98823.00;5052227;28;20710;-58
2022/06/11 02:06:24;;;;;;;18.83;17.27;;;;;;;20.19;100.00;98829.22;5052701;28;20268;-58
2022/06/11 02:09:05;;;;;;;17.67;16.17;;;;;;;20.21;100.00;98827.03;5052545;28;20217;-58
2022/06/11 02:11:38;;;;;;;17.13;15.73;;;;;;;20.00;100.00;98833.53;5052143;28;20619;-58
2022/06/11 02:14:13;;;;;;;19.10;17.20;;;;;;;20.08;100.00;98832.16;5053248;28;20188;-58
2022/06/11 02:16:47;;;;;;;16.00;14.70;;;;;;;20.05;100.00;98838.13;5052102;28;20279;-58
2022/06/11 02:19:17;;;;;;;16.00;14.70;;;;;;;20.05;100.00;98827.34;5052037;28;20199;-58
2022/06/11 02:21:49;;;;;;;15.70;14.40;;;;;;;20.12;100.00;98825.16;5052544;28;20184;-58
2022/06/11 02:24:23;;;;;;;12.37;11.37;;;;;;;20.02;100.00;98819.78;5052578;28;20192;-58
2022/06/11 02:26:54;;;;;;;12.23;11.33;;;;;;;19.98;100.00;98821.41;5051900;28;20184;-58
2022/06/11 02:29:24;;;;;;;10.23;9.57;;;;;;;19.85;100.00;98828.16;5051883;28;20188;-58
2022/06/11 02:31:55;;;;;;;10.80;9.90;;;;;;;19.78;100.00;98833.03;5052349;28;20647;-58
2022/06/11 02:34:25;;;;;;;11.13;10.33;;;;;;;19.77;100.00;98846.78;5051881;28;20184;-58
2022/06/11 02:36:59;;;;;;;10.77;9.97;;;;;;;19.52;100.00;98839.50;5052047;28;20200;-58
2022/06/11 02:39:29;;;;;;;10.37;9.77;;;;;;;19.47;100.00;98844.06;5052106;28;20297;-58
2022/06/11 02:41:57;;;;;;;11.67;10.80;;;;;;;19.51;100.00;98839.75;5051997;28;20199;-58
2022/06/11 02:44:24;;;;;;;11.90;11.00;;;;;;;19.48;100.00;98832.25;5051600;28;20203;-58
2022/06/11 02:46:52;;;;;;;12.90;11.90;;;;;;;19.47;100.00;98842.19;5051994;28;20250;-58
2022/06/11 02:49:23;;;;;;;13.33;12.23;;;;;;;19.49;100.00;98833.84;5052465;28;20282;-58
2022/06/11 02:51:52;;;;;;;14.13;12.90;;;;;;;19.48;100.00;98829.53;5052301;28;20525;-58
2022/06/11 02:54:20;;;;;;;13.63;12.43;;;;;;;19.45;100.00;98843.53;5051713;28;20191;-58
2022/06/11 02:56:48;;;;;;;14.70;13.33;;;;;;;19.42;100.00;98836.00;5051845;28;20189;-58
2022/06/11 02:59:15;;;;;;;14.37;12.83;;;;;;;19.47;100.00;98846.75;5052145;28;20243;-58
2022/06/11 03:01:42;;;;;;;14.87;13.33;;;;;;;19.32;100.00;98842.16;5052360;28;20254;-58
2022/06/11 03:04:12;;;;;;;15.07;13.87;;;;;;;19.29;100.00;98836.53;5052043;28;20196;-58
2022/06/11 03:06:41;;;;;;;15.47;14.07;;;;;;;19.32;100.00;98833.31;5051868;28;20188;-58
2022/06/11 03:09:09;;;;;;;15.60;14.30;;;;;;;19.35;100.00;98830.06;5051422;28;20217;-58
2022/06/11 03:11:36;;;;;;;14.53;13.33;;;;;;;19.38;100.00;98830.34;5051486;28;20250;-58
2022/06/11 03:14:03;;;;;;;14.83;13.63;;;;;;;19.39;100.00;98836.53;5051564;28;20660;-58
2022/06/11 03:16:31;;;;;;;15.80;14.20;;;;;;;19.33;100.00;98829.53;5051736;28;20195;-59
2022/06/11 03:18:58;;;;;;;15.57;14.07;;;;;;;19.33;100.00;98827.66;5051437;28;20663;-59
2022/06/11 03:21:26;;;;;;;16.00;14.50;;;;;;;19.27;100.00;98833.28;5051533;28;20254;-58
2022/06/11 03:23:53;;;;;;;16.53;14.80;;;;;;;19.33;100.00;98834.91;5051614;28;20188;-59
2022/06/11 03:26:19;;;;;;;15.23;13.87;;;;;;;19.36;100.00;98839.78;5052645;28;20192;-59
2022/06/11 03:28:46;;;;;;;14.87;13.63;;;;;;;19.34;100.00;98826.56;5051536;28;20278;-59
2022/06/11 03:31:14;;;;;;;15.43;14.03;;;;;;;19.39;100.00;98831.94;5051639;28;20626;-59
2022/06/11 03:33:41;;;;;;;17.27;15.57;;;;;;;19.25;100.00;98824.66;5052133;28;20195;-59
2022/06/11 03:36:10;;;;;;;15.83;14.60;;;;;;;19.33;100.00;98830.34;5051442;28;20622;-59
2022/06/11 03:38:39;;;;;;;17.57;15.83;;;;;;;19.29;100.00;98833.84;5051584;28;20316;-59
2022/06/11 03:41:07;;;;;;;16.47;14.97;;;;;;;19.30;100.00;98835.44;5052091;28;20717;-59
2022/06/11 03:43:34;;;;;;;16.47;14.93;;;;;;;19.38;100.00;98834.91;5054833;28;20628;-59
2022/06/11 03:46:01;;;;;;;17.00;15.23;;;;;;;19.44;100.00;98839.25;5055030;28;20230;-59
2022/06/11 03:48:29;;;;;;;17.97;15.30;;;;;;;19.55;100.00;98843.53;5054580;28;20715;-59
2022/06/11 03:50:57;;;;;;;17.03;15.53;;;;;;;19.68;100.00;98851.06;5054641;28;20256;-60
2022/06/11 03:53:26;;;;;;;19.97;18.17;;;;;;;19.77;100.00;98852.16;5054553;28;20687;-58
2022/06/11 03:55:55;;;;;;;18.77;17.07;;;;;;;19.73;100.00;98851.88;5054615;28;20197;-58
2022/06/11 03:58:22;;;;;;;19.27;17.57;;;;;;;19.85;100.00;98857.03;5054555;28;20254;-58
2022/06/11 04:03:35;;;;;;;19.20;17.33;;;;;;;19.97;100.00;98863.72;5055071;28;20188;-59
2022/06/11 04:06:02;;;;;;;19.83;18.00;;;;;;;20.06;100.00;98864.00;5054705;28;20193;-59
2022/06/11 04:08:30;;;;;;;17.53;15.93;;;;;;;20.05;100.00;98862.38;5054245;28;20231;-59
2022/06/11 04:11:00;;;;;;;18.00;16.20;;;;;;;20.10;100.00;98862.41;5054235;28;20255;-59
2022/06/11 04:13:29;;;;;;;17.77;16.27;;;;;;;20.18;100.00;98868.03;5055143;28;20189;-59
2022/06/11 04:15:58;;;;;;;17.33;15.70;;;;;;;20.22;100.00;98865.63;5054424;28;20266;-59
2022/06/11 04:18:30;;;;;;;17.43;15.83;;;;;;;20.25;100.00;98860.47;5054766;28;20596;-59
2022/06/11 04:20:57;;;;;;;16.97;15.43;;;;;;;20.33;100.00;98864.50;5054189;28;20675;-59
2022/06/11 04:23:29;;;;;;;17.43;15.80;;;;;;;20.17;100.00;98879.09;5054016;28;20258;-58
2022/06/11 04:25:58;;;;;;;16.20;15.00;;;;;;;20.11;100.00;98880.19;5055182;28;20192;-58
2022/06/11 04:28:25;;;;;;;17.07;15.50;;;;;;;20.04;100.00;98864.25;5054177;28;20239;-58
2022/06/11 04:30:52;;;;;;;17.27;15.90;;;;;;;20.23;100.00;98891.50;5054557;28;20230;-58
2022/06/11 04:33:19;;;;;;;17.50;15.77;;;;;;;20.19;100.00;98887.72;5054649;28;20189;-58
2022/06/11 04:35:45;;;;;;;18.47;16.73;;;;;;;20.31;100.00;98899.03;5054702;28;20193;-59
2022/06/11 04:38:12;;;;;;;17.57;16.10;;;;;;;20.31;100.00;98896.34;5053852;28;20608;-59
2022/06/11 04:40:39;;;;;;;18.50;16.73;;;;;;;20.25;100.00;98883.94;5054518;28;20232;-58
2022/06/11 04:43:07;;;;;;;18.67;16.97;;;;;;;20.24;100.00;98901.19;5054244;28;20197;-59
2022/06/11 04:45:34;;;;;;;12.63;11.33;;;;;;;20.04;100.00;98874.22;5054204;28;20193;-58
2022/06/11 04:48:01;;;;;;;17.20;15.60;;;;;;;20.06;100.00;98880.19;5053516;28;20224;-58
2022/06/11 04:50:28;;;;;;;19.97;16.47;;;;;;;20.03;100.00;98883.41;5054477;28;20197;-58
2022/06/11 04:52:55;;;;;;;17.33;15.73;;;;;;;20.04;100.00;98880.44;5053302;28;20197;-58
2022/06/11 04:55:22;;;;;;;18.03;15.63;;;;;;;20.03;100.00;98875.31;5054077;28;20250;-58
2022/06/11 04:57:49;;;;;;;15.03;13.87;;;;;;;20.01;100.00;98880.97;5054573;28;20200;-58
2022/06/11 05:00:21;;;;;;;12.60;11.70;;;;;;;20.00;100.00;98879.38;5053992;28;20196;-58
2022/06/11 05:02:49;;;;;;;11.93;11.13;;;;;;;20.00;100.00;98878.53;5053953;28;20603;-58
2022/06/11 05:05:17;;;;;;;14.03;12.73;;;;;;;20.07;100.00;98879.91;5053543;28;20250;-59
2022/06/11 05:07:44;;;;;;;11.23;10.27;;;;;;;20.26;100.00;98899.06;5052968;28;20192;-59
2022/06/11 05:10:13;;;;;;;12.17;11.27;;;;;;;20.38;100.00;98910.38;5053631;28;20192;-60
2022/06/11 05:12:40;;;;;;;12.73;11.70;;;;;;;20.30;100.00;98914.41;5053222;28;20200;-59
2022/06/11 05:15:08;;;;;;;11.23;10.23;;;;;;;20.36;100.00;98915.22;5053949;28;20270;-59
2022/06/11 05:17:36;;;;;;;8.43;7.80;;;;;;;20.45;100.00;98927.06;5053051;28;20212;-60
2022/06/11 05:20:04;;;;;;;5.67;5.17;;;;;;;20.57;97.39;98929.47;5053103;28;20295;-60
2022/06/11 05:22:30;;;;;;;6.13;5.80;;;;;;;20.69;95.13;98925.38;5053318;28;20277;-60
2022/06/11 05:24:57;;;;;;;6.47;5.97;;;;;;;21.01;97.30;98927.72;5053809;28;20245;-60
2022/06/11 05:27:26;;;;;;;4.17;3.97;;;;;;;21.26;95.19;98941.91;5053238;28;20196;-61
2022/06/11 05:29:57;;;;;;;4.30;3.90;;;;;;;21.38;93.16;98939.69;5052836;28;20228;-61
2022/06/11 05:32:27;;;;;;;5.90;4.43;;;;;;;21.52;89.17;98940.66;5053036;28;20242;-60
2022/06/11 05:34:55;;;;;;;3.80;3.60;;;;;;;21.46;87.15;98944.50;5053327;28;20203;-60
2022/06/11 05:37:22;;;;;;;5.87;5.47;;;;;;;21.40;88.34;98961.81;5053877;28;20617;-60
2022/06/11 05:39:49;;;;;;;58.67;34.90;;;;;;;21.46;90.34;98962.59;5052929;28;20282;-60
2022/06/11 05:42:18;;;;;;;27.90;17.80;;;;;;;21.57;92.69;98948.78;5052590;28;20702;-60
2022/06/11 05:44:45;;;;;;;4.50;3.97;;;;;;;21.79;87.41;98951.06;5053782;28;20189;-62
2022/06/11 05:47:15;;;;;;;181.13;71.83;;;;;;;22.07;87.95;98978.19;5052534;28;20255;-62
2022/06/11 05:49:46;;;;;;;100.10;42.70;;;;;;;22.25;89.14;98988.31;5052811;28;20711;-60
2022/06/11 05:52:18;;;;;;;43.30;20.60;;;;;;;22.41;89.23;98981.66;5053098;28;20279;-62
2022/06/11 05:54:46;;;;;;;14.33;9.70;;;;;;;22.51;86.02;98978.91;5052973;28;20645;-63
2022/06/11 05:57:20;;;;;;;30.03;14.30;;;;;;;22.65;87.45;98996.09;5052726;28;20227;-63
2022/06/11 05:59:51;;;;;;;8.07;6.53;;;;;;;22.77;85.36;98999.22;5052877;28;20271;-61
2022/06/11 06:02:21;;;;;;;8.13;6.53;;;;;;;22.88;84.47;98984.47;5048202;28;20184;-60
2022/06/11 06:04:48;;;;;;;4.00;3.63;;;;;;;22.86;83.92;98994.78;5051663;28;20193;-62
2022/06/11 06:07:16;;;;;;;3.30;3.10;;;;;;;22.80;82.81;99006.78;5052686;28;20205;-61
2022/06/11 06:09:43;;;;;;;3.50;3.30;;;;;;;22.69;81.39;99009.84;5052593;28;20225;-62
2022/06/11 06:12:10;;;;;;;3.77;3.57;;;;;;;22.51;80.65;99003.28;5052292;28;20572;-60
2022/06/11 06:14:37;;;;;;;4.00;3.70;;;;;;;22.26;81.86;98999.94;5052068;28;20197;-60
2022/06/11 06:17:04;;;;;;;4.30;4.03;;;;;;;22.08;84.44;99004.13;5051917;28;20192;-60
2022/06/11 06:19:31;;;;;;;4.37;4.00;;;;;;;21.99;84.32;99010.41;5052029;28;20262;-61
2022/06/11 06:21:58;;;;;;;4.47;4.03;;;;;;;21.91;85.31;98998.31;5052185;28;20197;-60
2022/06/11 06:24:26;;;;;;;4.23;3.93;;;;;;;21.96;86.58;99000.97;5051924;28;20258;-60
2022/06/11 06:26:53;;;;;;;4.80;4.50;;;;;;;22.12;87.46;98997.06;5052216;28;20189;-60
2022/06/11 06:29:20;;;;;;;5.70;5.30;;;;;;;22.15;86.70;98993.00;5052129;28;20216;-60
2022/06/11 06:31:47;;;;;;;5.53;5.23;;;;;;;22.30;86.89;98998.28;5051792;28;20200;-61
2022/06/11 06:34:14;;;;;;;5.33;4.93;;;;;;;22.39;87.26;99010.09;5052068;28;20197;-60
2022/06/11 06:36:41;;;;;;;5.87;5.47;;;;;;;22.38;86.44;99008.50;5051893;28;20196;-61
2022/06/11 06:39:08;;;;;;;6.07;5.60;;;;;;;22.42;87.22;99007.63;5052059;28;20228;-60
2022/06/11 06:41:36;;;;;;;5.50;5.20;;;;;;;22.59;87.86;98993.72;5052552;28;20193;-61
2022/06/11 06:44:03;;;;;;;8.00;7.13;;;;;;;23.05;85.97;98992.94;5051972;28;20193;-60
2022/06/11 06:46:30;;;;;;;16.43;15.00;;;;;;;23.33;85.10;98994.81;5051618;28;20660;-62
2022/06/11 06:48:56;;;;;;;5.47;4.53;;;;;;;23.56;84.89;98999.38;5051620;28;20260;-60
2022/06/11 06:51:23;;;;;;;6.07;5.60;;;;;;;23.94;82.71;98982.00;5051464;28;20677;-61
2022/06/11 06:53:50;;;;;;;5.97;5.30;;;;;;;24.38;80.61;98990.53;5051555;28;20723;-61
2022/06/11 06:56:17;;;;;;;6.97;6.53;;;;;;;24.40;78.70;98995.66;5051654;28;20198;-59
2022/06/11 06:58:45;;;;;;;6.23;4.80;;;;;;;24.31;80.15;98995.56;5051428;28;20198;-59
2022/06/11 07:01:12;;;;;;;6.67;6.17;;;;;;;24.33;78.73;98998.75;5051577;28;20227;-60
2022/06/11 07:03:41;;;;;;;6.03;5.73;;;;;;;24.33;77.56;99008.81;5051705;28;20196;-61
2022/06/11 07:06:08;;;;;;;5.63;4.90;;;;;;;24.36;77.44;99003.59;5049900;28;20266;-62
2022/06/11 07:08:34;;;;;;;7.20;6.40;;;;;;;24.47;78.35;98999.59;5051505;28;20203;-61
2022/06/11 07:11:02;;;;;;;15.63;14.00;;;;;;;24.57;77.42;99004.88;5051597;28;20194;-61
2022/06/11 07:13:29;;;;;;;24.73;19.40;;;;;;;24.48;78.69;99001.22;5051839;28;20261;-61
2022/06/11 07:15:58;;;;;;;28.27;20.83;;;;;;;24.53;80.13;99009.28;5052504;28;20202;-61
2022/06/11 07:18:30;;;;;;;30.77;20.37;;;;;;;24.60;79.02;99015.19;5055841;28;20199;-62
2022/06/11 07:21:00;;;;;;;11.50;10.00;;;;;;;24.72;78.59;99012.78;5055601;28;20199;-62
2022/06/11 07:23:31;;;;;;;9.23;8.53;;;;;;;24.76;78.92;99007.53;5054320;28;20252;-61
2022/06/11 07:26:00;;;;;;;32.37;18.40;;;;;;;24.85;78.33;99011.19;5055084;28;20195;-63
2022/06/11 07:28:34;;;;;;;48.37;25.87;;;;;;;24.86;77.46;99020.94;5055001;28;20200;-62
2022/06/11 07:31:02;;;;;;;31.30;21.20;;;;;;;24.59;78.00;99024.38;5052350;28;20178;-62
2022/06/11 07:33:29;;;;;;;13.03;11.40;;;;;;;24.33;79.34;98998.75;5043335;28;20204;-61
2022/06/11 07:35:57;;;;;;;10.77;9.80;;;;;;;24.41;78.24;99017.09;5045071;28;20264;-62
2022/06/11 07:38:24;;;;;;;11.90;10.73;;;;;;;24.32;78.68;99018.88;5054602;28;20204;-62
2022/06/11 07:40:51;;;;;;;8.30;7.50;;;;;;;24.15;79.01;99017.78;5037896;28;20652;-63
2022/06/11 07:43:19;;;;;;;13.47;8.33;;;;;;;24.00;81.16;99020.72;5033004;28;20206;-62
2022/06/11 07:45:47;;;;;;;9.83;8.37;;;;;;;23.98;81.00;99021.03;5033277;28;20194;-60
2022/06/11 07:48:16;;;;;;;11.13;8.23;;;;;;;24.07;81.62;99016.56;5034833;28;20200;-62
2022/06/11 07:50:45;;;;;;;8.57;7.73;;;;;;;24.17;80.77;99021.81;5034926;28;20223;-62
2022/06/11 07:53:12;;;;;;;11.97;7.87;;;;;;;24.18;80.75;99017.22;5041688;28;20218;-61
2022/06/11 07:55:43;;;;;;;12.50;7.60;;;;;;;24.22;81.10;99012.81;5054559;28;20195;-63
2022/06/11 07:58:11;;;;;;;22.00;11.97;;;;;;;24.46;84.32;99002.63;5054541;28;20188;-62
2022/06/11 08:00:40;;;;;;;9.00;7.60;;;;;;;24.58;83.69;99006.47;5054473;28;20213;-62
2022/06/11 08:03:07;;;;;;;13.27;7.60;;;;;;;24.72;82.01;99007.34;5054270;28;20736;-64
2022/06/11 08:05:36;;;;;;;8.20;7.60;;;;;;;24.83;80.58;99016.91;5054596;28;20265;-62
2022/06/11 08:08:04;;;;;;;7.50;6.87;;;;;;;24.89;80.97;99002.13;5054840;28;20254;-63
2022/06/11 08:10:31;;;;;;;7.90;7.30;;;;;;;24.90;77.69;99016.50;5054185;28;20304;-62
2022/06/11 08:12:58;;;;;;;6.73;6.23;;;;;;;24.55;77.83;99012.50;5055129;28;20191;-63
2022/06/11 08:15:25;;;;;;;5.80;5.40;;;;;;;24.23;76.95;99020.66;5054498;28;20257;-63
2022/06/11 08:17:52;;;;;;;6.27;5.70;;;;;;;24.10;80.23;98999.66;5054377;28;20199;-63
2022/06/11 08:20:22;;;;;;;6.67;6.03;;;;;;;24.25;80.59;99013.00;5054189;28;20256;-62
2022/06/11 08:22:50;;;;;;;7.77;6.23;;;;;;;24.36;81.58;99009.03;5054174;28;20191;-59
2022/06/11 08:25:17;;;;;;;5.70;5.20;;;;;;;24.33;77.24;99017.75;5053921;28;20208;-61
2022/06/11 08:27:44;;;;;;;11.97;7.83;;;;;;;24.28;80.88;99008.91;5053780;28;20237;-63
2022/06/11 08:30:13;;;;;;;7.73;7.13;;;;;;;24.34;79.56;99010.44;5054044;28;20260;-63
2022/06/11 08:32:40;;;;;;;7.70;7.10;;;;;;;24.33;79.64;99004.19;5054609;28;20198;-62
2022/06/11 08:35:08;;;;;;;7.50;6.50;;;;;;;24.31;81.58;99000.97;5054046;28;20206;-62
2022/06/11 08:37:36;;;;;;;7.83;7.20;;;;;;;24.12;80.49;99004.81;5053690;28;20253;-63
2022/06/11 08:40:06;;;;;;;8.70;8.00;;;;;;;24.04;83.24;98995.44;5054284;28;20288;-61
2022/06/11 08:42:38;;;;;;;7.73;7.23;;;;;;;23.98;81.29;99012.88;5054293;28;20194;-59
2022/06/11 08:45:13;;;;;;;6.77;6.30;;;;;;;23.69;81.21;99036.59;5054484;28;20195;-61
2022/06/11 08:47:44;;;;;;;7.17;5.90;;;;;;;23.37;82.21;99041.94;5054240;28;20189;-62
2022/06/11 08:50:18;;;;;;;7.67;6.23;;;;;;;23.16;83.19;99035.06;5053212;28;20569;-63
2022/06/11 08:52:46;;;;;;;6.60;6.10;;;;;;;22.99;84.66;99029.31;5054661;28;20568;-63
2022/06/11 08:55:14;;;;;;;7.57;6.57;;;;;;;22.80;85.98;99028.44;5053879;28;20201;-61
2022/06/11 08:57:52;;;;;;;6.53;6.13;;;;;;;22.58;87.51;99035.44;5053174;28;20255;-62
2022/06/11 09:00:21;;;;;;;10.00;7.00;;;;;;;22.37;88.82;99018.50;5053683;28;20211;-61
2022/06/11 09:03:15;;;;;;;8.17;7.37;;;;;;;22.14;91.51;99021.97;5053139;28;20204;-62
2022/06/11 09:06:00;;;;;;;7.10;6.23;;;;;;;21.81;92.62;99014.59;5053117;28;20288;-62
2022/06/11 09:08:48;;;;;;;9.60;6.37;;;;;;;21.59;93.96;99014.16;5053831;28;20250;-64
2022/06/11 09:11:32;;;;;;;7.20;6.70;;;;;;;21.43;95.34;99023.41;5052989;28;20645;-65
2022/06/11 09:14:29;;;;;;;8.47;7.67;;;;;;;21.26;96.96;99039.16;5053439;28;20246;-64
2022/06/11 09:17:13;;;;;;;7.17;6.57;;;;;;;21.15;98.01;99042.97;5042447;28;20197;-66
2022/06/11 09:19:52;;;;;;;8.13;7.47;;;;;;;21.05;99.56;99045.72;5052752;28;20283;-64
2022/06/11 09:22:36;;;;;;;7.70;6.87;;;;;;;20.94;99.95;99054.94;5053267;28;20184;-64
2022/06/11 09:25:21;;;;;;;6.97;6.23;;;;;;;20.71;100.00;99047.41;5052023;28;20185;-64
2022/06/11 09:27:59;;;;;;;7.13;6.63;;;;;;;20.63;100.00;99052.50;5052096;28;20250;-64
2022/06/11 09:30:35;;;;;;;8.60;7.80;;;;;;;20.60;100.00;99061.97;5052040;28;20278;-64
2022/06/11 09:33:08;;;;;;;10.00;9.20;;;;;;;20.50;100.00;99051.19;5053324;28;20189;-64
2022/06/11 09:35:41;;;;;;;11.77;10.67;;;;;;;20.50;100.00;99070.09;5053382;28;20185;-64
2022/06/11 09:38:17;;;;;;;11.17;10.47;;;;;;;20.22;100.00;99070.59;5052894;28;20185;-64
2022/06/11 09:40:50;;;;;;;10.50;9.80;;;;;;;20.14;100.00;99074.63;5052477;28;20196;-64
2022/06/11 09:43:34;;;;;;;9.33;8.50;;;;;;;20.07;100.00;99073.22;5052597;28;20200;-64
2022/06/11 09:46:12;;;;;;;9.57;8.80;;;;;;;19.99;100.00;99089.94;5052431;28;20180;-64
2022/06/11 09:49:02;;;;;;;7.43;7.10;;;;;;;19.88;100.00;99090.97;5052244;28;20188;-64
2022/06/11 09:51:38;;;;;;;7.47;7.00;;;;;;;19.81;100.00;99090.44;5052321;28;20224;-64
2022/06/11 09:54:19;;;;;;;8.13;7.50;;;;;;;19.79;100.00;99098.78;5052942;28;20257;-64
2022/06/11 09:56:53;;;;;;;8.07;7.53;;;;;;;19.79;100.00;99092.56;5052122;28;20652;-64
2022/06/11 09:59:33;;;;;;;8.70;8.13;;;;;;;19.75;100.00;99086.91;5052319;28;20644;-64
2022/06/11 10:02:09;;;;;;;9.20;8.40;;;;;;;19.78;100.00;99094.47;5052205;28;20190;-64
2022/06/11 10:04:41;;;;;;;9.63;7.53;;;;;;;19.67;100.00;99092.81;5051912;28;20242;-64
2022/06/11 10:07:15;;;;;;;8.53;7.83;;;;;;;19.67;100.00;99094.69;5051694;28;20242;-65
2022/06/11 10:09:46;;;;;;;8.13;7.47;;;;;;;19.71;100.00;99096.59;5051463;28;20688;-65
2022/06/11 10:12:19;;;;;;;8.03;7.57;;;;;;;19.84;100.00;99095.28;5052348;28;20257;-65
2022/06/11 10:14:51;;;;;;;9.17;8.33;;;;;;;19.80;100.00;99072.63;5051814;28;20614;-65
2022/06/11 10:17:24;;;;;;;9.90;8.87;;;;;;;19.86;100.00;99083.16;5052029;28;20188;-65
2022/06/11 10:19:55;;;;;;;9.93;9.00;;;;;;;19.96;100.00;99071.59;5051956;28;20195;-65
2022/06/11 10:22:35;;;;;;;10.70;9.80;;;;;;;20.05;100.00;99070.00;5052864;28;20187;-64
2022/06/11 10:25:16;;;;;;;10.47;9.67;;;;;;;20.09;100.00;99065.69;5052396;28;20188;-65
2022/06/11 10:27:48;;;;;;;9.87;9.13;;;;;;;20.14;100.00;99063.03;5052511;28;20272;-64
2022/06/11 10:30:25;;;;;;;9.40;8.00;;;;;;;20.29;100.00;99073.81;5051694;28;20266;-64
2022/06/11 10:32:55;;;;;;;6.40;5.90;;;;;;;20.48;100.00;99074.91;5052330;28;20611;-64
2022/06/11 10:35:24;;;;;;;7.07;6.67;;;;;;;20.71;100.00;99079.78;5051601;28;20193;-64
2022/06/11 10:38:03;;;;;;;5.73;5.43;;;;;;;20.78;100.00;99085.69;5051754;28;20615;-64
2022/06/11 10:40:34;;;;;;;4.83;4.60;;;;;;;20.79;100.00;99081.94;5052153;28;20598;-64
2022/06/11 10:43:04;;;;;;;4.20;3.90;;;;;;;20.79;100.00;99081.13;5051652;28;20180;-64
2022/06/11 10:45:32;;;;;;;4.30;4.10;;;;;;;20.77;100.00;99077.88;5052126;28;20219;-64
2022/06/11 10:48:01;;;;;;;4.93;4.03;;;;;;;20.70;100.00;99067.34;5051570;28;20191;-64
2022/06/11 10:50:31;;;;;;;4.27;3.80;;;;;;;20.70;100.00;99061.94;5051630;28;20362;-64
2022/06/11 10:53:06;;;;;;;3.83;3.63;;;;;;;20.82;100.00;99070.56;5056071;28;20201;-64
2022/06/11 10:55:40;;;;;;;4.30;4.10;;;;;;;21.02;100.00;99069.78;5055452;28;20184;-64
2022/06/11 10:58:19;;;;;;;3.53;3.23;;;;;;;21.08;100.00;99064.09;5056093;28;20253;-63
2022/06/11 11:00:53;;;;;;;3.20;3.00;;;;;;;21.04;100.00;99062.19;5056245;28;20193;-64
2022/06/11 11:03:29;;;;;;;3.17;2.97;;;;;;;21.08;99.16;99064.09;5055802;28;20199;-64
2022/06/11 11:06:02;;;;;;;3.33;2.93;;;;;;;21.06;99.78;99057.34;5055771;28;20592;-64
2022/06/11 11:08:28;;;;;;;3.57;3.27;;;;;;;21.34;100.00;99054.81;5054996;28;20200;-64
2022/06/11 11:10:56;;;;;;;3.30;3.10;;;;;;;21.59;99.12;99054.69;5055408;28;20216;-65
2022/06/11 11:13:28;;;;;;;2.77;2.67;;;;;;;21.75;99.03;99050.88;5055037;28;20251;-65
2022/06/11 11:16:07;;;;;;;3.00;2.80;;;;;;;21.91;98.02;99047.00;5055360;28;20649;-65
2022/06/11 11:18:41;;;;;;;3.60;3.40;;;;;;;22.05;95.17;99047.19;5055500;28;20276;-65
2022/06/11 11:21:17;;;;;;;3.50;3.30;;;;;;;22.17;95.34;99053.06;5056128;28;20196;-65
2022/06/11 11:23:44;;;;;;;3.23;2.93;;;;;;;22.28;93.46;99051.88;5055272;28;20234;-65
2022/06/11 11:26:15;;;;;;;2.70;2.60;;;;;;;22.39;90.88;99042.59;5055340;28;20192;-65
2022/06/11 11:28:52;;;;;;;2.43;2.33;;;;;;;22.72;89.49;99053.44;5055933;28;20258;-65
2022/06/11 11:31:23;;;;;;;2.70;2.60;;;;;;;22.98;87.29;99052.09;5054950;28;20216;-65
2022/06/11 11:34:03;;;;;;;2.50;2.40;;;;;;;23.10;86.56;99027.28;5055010;28;20189;-65
2022/06/11 11:36:31;;;;;;;2.60;2.50;;;;;;;23.20;85.91;99049.69;5054858;28;20223;-65
2022/06/11 11:39:17;;;;;;;2.20;2.20;;;;;;;23.34;85.22;99044.38;5055129;28;20229;-65
2022/06/11 11:41:54;;;;;;;2.10;2.00;;;;;;;23.43;84.97;99039.94;5053342;28;20262;-65